sensor_id;sensor_type;location;lat;lon;timestamp;P1;durP1;ratioP1;P2;durP2;ratioP2
21022;SDS011;10669;51.076;3.714;2022-07-17T00:01:46;3.67;;;1.77;;
21022;SDS011;10669;51.076;3.714;2022-07-17T00:04:12;3.07;;;1.37;;
21022;SDS011;10669;51.076;3.714;2022-07-17T00:06:38;5.63;;;1.97;;
21022;SDS011;10669;51.076;3.714;2022-07-17T00:09:03;3.00;;;1.90;;
21022;SDS011;10669;51.076;3.714;2022-07-17T00:11:29;3.00;;;1.70;;
21022;SDS011;10669;51.076;3.714;2022-07-17T00:13:55;5.23;;;1.73;;
21022;SDS011;10669;51.076;3.714;2022-07-17T00:16:21;2.90;;;1.60;;
21022;SDS011;10669;51.076;3.714;2022-07-17T00:18:46;5.97;;;1.97;;
21022;SDS011;10669;51.076;3.714;2022-07-17T00:21:12;2.83;;;1.60;;
21022;SDS011;10669;51.076;3.714;2022-07-17T00:23:38;2.87;;;1.90;;
21022;SDS011;10669;51.076;3.714;2022-07-17T00:26:04;2.80;;;1.50;;
21022;SDS011;10669;51.076;3.714;2022-07-17T00:28:30;5.47;;;1.90;;
21022;SDS011;10669;51.076;3.714;2022-07-17T00:30:55;4.90;;;1.47;;
21022;SDS011;10669;51.076;3.714;2022-07-17T00:33:21;2.03;;;1.70;;
21022;SDS011;10669;51.076;3.714;2022-07-17T00:35:46;6.93;;;1.50;;
21022;SDS011;10669;51.076;3.714;2022-07-17T00:38:12;5.93;;;1.70;;
21022;SDS011;10669;51.076;3.714;2022-07-17T00:40:38;5.60;;;1.90;;
21022;SDS011;10669;51.076;3.714;2022-07-17T00:43:04;2.80;;;1.67;;
21022;SDS011;10669;51.076;3.714;2022-07-17T00:45:30;6.93;;;1.60;;
21022;SDS011;10669;51.076;3.714;2022-07-17T00:50:23;5.13;;;1.90;;
21022;SDS011;10669;51.076;3.714;2022-07-17T00:52:54;4.20;;;1.90;;
21022;SDS011;10669;51.076;3.714;2022-07-17T00:55:20;4.57;;;2.17;;
21022;SDS011;10669;51.076;3.714;2022-07-17T00:57:47;4.63;;;2.13;;
21022;SDS011;10669;51.076;3.714;2022-07-17T01:00:14;2.37;;;1.63;;
21022;SDS011;10669;51.076;3.714;2022-07-17T01:02:44;5.47;;;2.30;;
21022;SDS011;10669;51.076;3.714;2022-07-17T01:05:14;3.80;;;1.67;;
21022;SDS011;10669;51.076;3.714;2022-07-17T01:07:40;4.03;;;2.20;;
21022;SDS011;10669;51.076;3.714;2022-07-17T01:10:07;5.77;;;1.80;;
21022;SDS011;10669;51.076;3.714;2022-07-17T01:12:33;2.60;;;1.93;;
21022;SDS011;10669;51.076;3.714;2022-07-17T01:14:58;6.23;;;2.00;;
21022;SDS011;10669;51.076;3.714;2022-07-17T01:17:25;5.27;;;1.80;;
21022;SDS011;10669;51.076;3.714;2022-07-17T01:19:51;5.90;;;2.10;;
21022;SDS011;10669;51.076;3.714;2022-07-17T01:22:17;5.77;;;1.93;;
21022;SDS011;10669;51.076;3.714;2022-07-17T01:24:43;5.13;;;1.57;;
21022;SDS011;10669;51.076;3.714;2022-07-17T01:27:08;3.57;;;2.10;;
21022;SDS011;10669;51.076;3.714;2022-07-17T01:29:37;7.33;;;2.07;;
21022;SDS011;10669;51.076;3.714;2022-07-17T01:32:04;4.50;;;1.80;;
21022;SDS011;10669;51.076;3.714;2022-07-17T01:34:30;7.27;;;2.40;;
21022;SDS011;10669;51.076;3.714;2022-07-17T01:36:56;5.53;;;2.20;;
21022;SDS011;10669;51.076;3.714;2022-07-17T01:39:22;8.57;;;2.13;;
21022;SDS011;10669;51.076;3.714;2022-07-17T01:42:08;8.57;;;2.40;;
21022;SDS011;10669;51.076;3.714;2022-07-17T01:44:33;4.17;;;2.23;;
21022;SDS011;10669;51.076;3.714;2022-07-17T01:47:00;6.30;;;2.40;;
21022;SDS011;10669;51.076;3.714;2022-07-17T01:49:25;5.00;;;2.20;;
21022;SDS011;10669;51.076;3.714;2022-07-17T01:51:51;4.33;;;2.70;;
21022;SDS011;10669;51.076;3.714;2022-07-17T01:54:17;3.40;;;2.17;;
21022;SDS011;10669;51.076;3.714;2022-07-17T01:56:42;6.47;;;2.77;;
21022;SDS011;10669;51.076;3.714;2022-07-17T01:59:08;5.63;;;2.40;;
21022;SDS011;10669;51.076;3.714;2022-07-17T02:01:34;3.83;;;2.23;;
21022;SDS011;10669;51.076;3.714;2022-07-17T02:03:59;3.20;;;2.47;;
21022;SDS011;10669;51.076;3.714;2022-07-17T02:06:25;7.13;;;2.20;;
21022;SDS011;10669;51.076;3.714;2022-07-17T02:08:51;10.50;;;2.63;;
21022;SDS011;10669;51.076;3.714;2022-07-17T02:11:17;3.13;;;2.40;;
21022;SDS011;10669;51.076;3.714;2022-07-17T02:13:43;5.93;;;3.07;;
21022;SDS011;10669;51.076;3.714;2022-07-17T02:16:08;7.13;;;3.00;;
21022;SDS011;10669;51.076;3.714;2022-07-17T02:18:34;8.27;;;2.67;;
21022;SDS011;10669;51.076;3.714;2022-07-17T02:21:00;6.70;;;2.87;;
21022;SDS011;10669;51.076;3.714;2022-07-17T02:23:26;8.10;;;2.57;;
21022;SDS011;10669;51.076;3.714;2022-07-17T02:25:53;7.80;;;3.00;;
21022;SDS011;10669;51.076;3.714;2022-07-17T02:28:19;3.60;;;2.30;;
21022;SDS011;10669;51.076;3.714;2022-07-17T02:30:45;5.00;;;2.90;;
21022;SDS011;10669;51.076;3.714;2022-07-17T02:33:11;5.33;;;3.07;;
21022;SDS011;10669;51.076;3.714;2022-07-17T02:35:36;4.17;;;2.87;;
21022;SDS011;10669;51.076;3.714;2022-07-17T02:38:02;4.43;;;2.70;;
21022;SDS011;10669;51.076;3.714;2022-07-17T02:40:28;5.20;;;2.67;;
21022;SDS011;10669;51.076;3.714;2022-07-17T02:42:53;7.43;;;3.10;;
21022;SDS011;10669;51.076;3.714;2022-07-17T02:45:20;9.60;;;3.10;;
21022;SDS011;10669;51.076;3.714;2022-07-17T02:47:49;6.17;;;2.53;;
21022;SDS011;10669;51.076;3.714;2022-07-17T02:50:15;5.93;;;2.77;;
21022;SDS011;10669;51.076;3.714;2022-07-17T02:52:41;4.07;;;2.63;;
21022;SDS011;10669;51.076;3.714;2022-07-17T02:55:09;7.53;;;2.97;;
21022;SDS011;10669;51.076;3.714;2022-07-17T02:57:39;11.93;;;2.97;;
21022;SDS011;10669;51.076;3.714;2022-07-17T03:00:05;10.07;;;2.90;;
21022;SDS011;10669;51.076;3.714;2022-07-17T03:02:33;5.53;;;3.00;;
21022;SDS011;10669;51.076;3.714;2022-07-17T03:04:58;4.83;;;3.03;;
21022;SDS011;10669;51.076;3.714;2022-07-17T03:07:24;5.20;;;2.57;;
21022;SDS011;10669;51.076;3.714;2022-07-17T03:09:50;9.20;;;2.90;;
21022;SDS011;10669;51.076;3.714;2022-07-17T03:12:15;6.00;;;2.87;;
21022;SDS011;10669;51.076;3.714;2022-07-17T03:14:41;6.67;;;2.90;;
21022;SDS011;10669;51.076;3.714;2022-07-17T03:17:06;7.60;;;3.10;;
21022;SDS011;10669;51.076;3.714;2022-07-17T03:19:32;11.20;;;3.40;;
21022;SDS011;10669;51.076;3.714;2022-07-17T03:21:58;9.23;;;3.30;;
21022;SDS011;10669;51.076;3.714;2022-07-17T03:24:23;6.53;;;2.70;;
21022;SDS011;10669;51.076;3.714;2022-07-17T03:26:49;6.23;;;2.53;;
21022;SDS011;10669;51.076;3.714;2022-07-17T03:29:14;9.00;;;3.20;;
21022;SDS011;10669;51.076;3.714;2022-07-17T03:31:42;10.37;;;3.13;;
21022;SDS011;10669;51.076;3.714;2022-07-17T03:34:14;3.87;;;2.57;;
21022;SDS011;10669;51.076;3.714;2022-07-17T03:36:39;4.17;;;2.87;;
21022;SDS011;10669;51.076;3.714;2022-07-17T03:39:05;9.00;;;3.37;;
21022;SDS011;10669;51.076;3.714;2022-07-17T03:41:31;6.30;;;2.70;;
21022;SDS011;10669;51.076;3.714;2022-07-17T03:43:57;5.50;;;2.97;;
21022;SDS011;10669;51.076;3.714;2022-07-17T03:46:22;4.87;;;3.03;;
21022;SDS011;10669;51.076;3.714;2022-07-17T03:48:48;13.97;;;3.33;;
21022;SDS011;10669;51.076;3.714;2022-07-17T03:51:14;4.30;;;2.87;;
21022;SDS011;10669;51.076;3.714;2022-07-17T03:53:40;5.60;;;3.17;;
21022;SDS011;10669;51.076;3.714;2022-07-17T03:56:06;8.23;;;2.93;;
21022;SDS011;10669;51.076;3.714;2022-07-17T03:58:31;10.83;;;3.07;;
21022;SDS011;10669;51.076;3.714;2022-07-17T04:00:57;6.50;;;3.03;;
21022;SDS011;10669;51.076;3.714;2022-07-17T04:03:23;6.90;;;3.20;;
21022;SDS011;10669;51.076;3.714;2022-07-17T04:05:49;4.50;;;3.13;;
21022;SDS011;10669;51.076;3.714;2022-07-17T04:08:15;7.70;;;3.57;;
21022;SDS011;10669;51.076;3.714;2022-07-17T04:10:41;5.30;;;2.80;;
21022;SDS011;10669;51.076;3.714;2022-07-17T04:13:06;9.20;;;3.33;;
21022;SDS011;10669;51.076;3.714;2022-07-17T04:15:32;4.67;;;2.97;;
21022;SDS011;10669;51.076;3.714;2022-07-17T04:18:16;10.17;;;3.17;;
21022;SDS011;10669;51.076;3.714;2022-07-17T04:20:42;9.17;;;4.03;;
21022;SDS011;10669;51.076;3.714;2022-07-17T04:23:08;6.87;;;4.77;;
21022;SDS011;10669;51.076;3.714;2022-07-17T04:25:34;15.83;;;5.97;;
21022;SDS011;10669;51.076;3.714;2022-07-17T04:28:00;9.67;;;5.17;;
21022;SDS011;10669;51.076;3.714;2022-07-17T04:30:26;9.13;;;4.00;;
21022;SDS011;10669;51.076;3.714;2022-07-17T04:32:51;9.00;;;4.20;;
21022;SDS011;10669;51.076;3.714;2022-07-17T04:35:17;13.17;;;3.97;;
21022;SDS011;10669;51.076;3.714;2022-07-17T04:37:43;8.47;;;3.80;;
21022;SDS011;10669;51.076;3.714;2022-07-17T04:40:09;6.13;;;3.73;;
21022;SDS011;10669;51.076;3.714;2022-07-17T04:42:35;7.73;;;3.90;;
21022;SDS011;10669;51.076;3.714;2022-07-17T04:45:01;8.80;;;3.73;;
21022;SDS011;10669;51.076;3.714;2022-07-17T04:47:26;8.50;;;3.30;;
21022;SDS011;10669;51.076;3.714;2022-07-17T04:49:52;6.33;;;3.30;;
21022;SDS011;10669;51.076;3.714;2022-07-17T04:52:17;8.03;;;3.87;;
21022;SDS011;10669;51.076;3.714;2022-07-17T04:54:43;7.73;;;3.57;;
21022;SDS011;10669;51.076;3.714;2022-07-17T04:57:08;8.57;;;3.33;;
21022;SDS011;10669;51.076;3.714;2022-07-17T04:59:34;4.63;;;3.37;;
21022;SDS011;10669;51.076;3.714;2022-07-17T05:02:02;11.03;;;4.13;;
21022;SDS011;10669;51.076;3.714;2022-07-17T05:04:28;8.80;;;3.80;;
21022;SDS011;10669;51.076;3.714;2022-07-17T05:06:54;10.20;;;3.50;;
21022;SDS011;10669;51.076;3.714;2022-07-17T05:09:19;6.73;;;3.33;;
21022;SDS011;10669;51.076;3.714;2022-07-17T05:11:45;10.43;;;3.10;;
21022;SDS011;10669;51.076;3.714;2022-07-17T05:14:11;6.80;;;3.27;;
21022;SDS011;10669;51.076;3.714;2022-07-17T05:16:36;7.53;;;3.60;;
21022;SDS011;10669;51.076;3.714;2022-07-17T05:19:02;13.53;;;3.53;;
21022;SDS011;10669;51.076;3.714;2022-07-17T05:21:27;5.03;;;2.90;;
21022;SDS011;10669;51.076;3.714;2022-07-17T05:23:53;7.63;;;3.40;;
21022;SDS011;10669;51.076;3.714;2022-07-17T05:26:19;13.60;;;3.40;;
21022;SDS011;10669;51.076;3.714;2022-07-17T05:28:44;6.10;;;3.47;;
21022;SDS011;10669;51.076;3.714;2022-07-17T05:31:10;12.60;;;3.00;;
21022;SDS011;10669;51.076;3.714;2022-07-17T05:33:35;7.03;;;2.83;;
21022;SDS011;10669;51.076;3.714;2022-07-17T05:36:01;5.30;;;2.60;;
21022;SDS011;10669;51.076;3.714;2022-07-17T05:38:27;10.33;;;2.80;;
21022;SDS011;10669;51.076;3.714;2022-07-17T05:40:52;9.83;;;3.20;;
21022;SDS011;10669;51.076;3.714;2022-07-17T05:43:18;6.03;;;2.77;;
21022;SDS011;10669;51.076;3.714;2022-07-17T05:45:43;5.63;;;2.70;;
21022;SDS011;10669;51.076;3.714;2022-07-17T05:48:09;6.97;;;2.87;;
21022;SDS011;10669;51.076;3.714;2022-07-17T05:50:35;8.03;;;3.53;;
21022;SDS011;10669;51.076;3.714;2022-07-17T05:53:00;10.90;;;3.50;;
21022;SDS011;10669;51.076;3.714;2022-07-17T05:55:26;8.83;;;3.27;;
21022;SDS011;10669;51.076;3.714;2022-07-17T05:57:52;6.30;;;3.20;;
21022;SDS011;10669;51.076;3.714;2022-07-17T06:00:17;14.67;;;3.77;;
21022;SDS011;10669;51.076;3.714;2022-07-17T06:02:43;8.27;;;2.90;;
21022;SDS011;10669;51.076;3.714;2022-07-17T06:05:10;6.00;;;3.40;;
21022;SDS011;10669;51.076;3.714;2022-07-17T06:07:36;10.00;;;3.07;;
21022;SDS011;10669;51.076;3.714;2022-07-17T06:10:02;8.10;;;2.83;;
21022;SDS011;10669;51.076;3.714;2022-07-17T06:12:29;13.00;;;3.60;;
21022;SDS011;10669;51.076;3.714;2022-07-17T06:14:54;12.87;;;3.03;;
21022;SDS011;10669;51.076;3.714;2022-07-17T06:17:20;9.47;;;2.93;;
21022;SDS011;10669;51.076;3.714;2022-07-17T06:19:45;10.77;;;3.20;;
21022;SDS011;10669;51.076;3.714;2022-07-17T06:22:11;6.67;;;2.60;;
21022;SDS011;10669;51.076;3.714;2022-07-17T06:24:37;5.83;;;2.70;;
21022;SDS011;10669;51.076;3.714;2022-07-17T06:27:02;7.50;;;2.63;;
21022;SDS011;10669;51.076;3.714;2022-07-17T06:29:28;6.37;;;3.00;;
21022;SDS011;10669;51.076;3.714;2022-07-17T06:31:54;7.33;;;3.03;;
21022;SDS011;10669;51.076;3.714;2022-07-17T06:34:19;6.70;;;2.60;;
21022;SDS011;10669;51.076;3.714;2022-07-17T06:36:45;8.67;;;3.30;;
21022;SDS011;10669;51.076;3.714;2022-07-17T06:39:11;6.00;;;2.40;;
21022;SDS011;10669;51.076;3.714;2022-07-17T06:41:37;8.53;;;2.77;;
21022;SDS011;10669;51.076;3.714;2022-07-17T06:44:02;6.40;;;2.83;;
21022;SDS011;10669;51.076;3.714;2022-07-17T06:46:28;10.20;;;3.03;;
21022;SDS011;10669;51.076;3.714;2022-07-17T06:48:54;4.00;;;2.47;;
21022;SDS011;10669;51.076;3.714;2022-07-17T06:51:19;10.67;;;2.50;;
21022;SDS011;10669;51.076;3.714;2022-07-17T06:53:45;8.03;;;2.90;;
21022;SDS011;10669;51.076;3.714;2022-07-17T06:56:11;7.27;;;2.87;;
21022;SDS011;10669;51.076;3.714;2022-07-17T06:58:36;10.00;;;2.63;;
21022;SDS011;10669;51.076;3.714;2022-07-17T07:01:02;9.30;;;2.63;;
21022;SDS011;10669;51.076;3.714;2022-07-17T07:03:27;4.40;;;2.20;;
21022;SDS011;10669;51.076;3.714;2022-07-17T07:05:53;6.30;;;2.57;;
21022;SDS011;10669;51.076;3.714;2022-07-17T07:08:20;8.70;;;2.53;;
21022;SDS011;10669;51.076;3.714;2022-07-17T07:10:45;4.07;;;2.40;;
21022;SDS011;10669;51.076;3.714;2022-07-17T07:13:11;5.00;;;2.07;;
21022;SDS011;10669;51.076;3.714;2022-07-17T07:15:40;5.00;;;2.40;;
21022;SDS011;10669;51.076;3.714;2022-07-17T07:18:05;4.50;;;2.53;;
21022;SDS011;10669;51.076;3.714;2022-07-17T07:20:31;8.20;;;2.57;;
21022;SDS011;10669;51.076;3.714;2022-07-17T07:22:56;8.40;;;2.97;;
21022;SDS011;10669;51.076;3.714;2022-07-17T07:25:22;14.03;;;2.63;;
21022;SDS011;10669;51.076;3.714;2022-07-17T07:27:47;6.90;;;2.60;;
21022;SDS011;10669;51.076;3.714;2022-07-17T07:30:13;7.00;;;2.30;;
21022;SDS011;10669;51.076;3.714;2022-07-17T07:32:39;6.33;;;2.80;;
21022;SDS011;10669;51.076;3.714;2022-07-17T07:35:05;9.07;;;2.87;;
21022;SDS011;10669;51.076;3.714;2022-07-17T07:37:32;8.90;;;2.23;;
21022;SDS011;10669;51.076;3.714;2022-07-17T07:39:58;7.47;;;2.03;;
21022;SDS011;10669;51.076;3.714;2022-07-17T07:42:24;6.90;;;2.37;;
21022;SDS011;10669;51.076;3.714;2022-07-17T07:44:50;4.97;;;2.20;;
21022;SDS011;10669;51.076;3.714;2022-07-17T07:47:17;4.33;;;2.00;;
21022;SDS011;10669;51.076;3.714;2022-07-17T07:49:42;5.32;;;1.92;;
21022;SDS011;10669;51.076;3.714;2022-07-17T07:52:08;5.97;;;2.10;;
21022;SDS011;10669;51.076;3.714;2022-07-17T07:54:33;8.93;;;1.92;;
21022;SDS011;10669;51.076;3.714;2022-07-17T07:56:59;5.97;;;2.13;;
21022;SDS011;10669;51.076;3.714;2022-07-17T07:59:25;5.68;;;1.85;;
21022;SDS011;10669;51.076;3.714;2022-07-17T08:01:50;6.43;;;2.25;;
21022;SDS011;10669;51.076;3.714;2022-07-17T08:04:16;5.88;;;1.98;;
21022;SDS011;10669;51.076;3.714;2022-07-17T08:06:42;6.85;;;2.10;;
21022;SDS011;10669;51.076;3.714;2022-07-17T08:09:08;3.78;;;1.17;;
21022;SDS011;10669;51.076;3.714;2022-07-17T08:11:34;6.32;;;1.67;;
21022;SDS011;10669;51.076;3.714;2022-07-17T08:14:00;5.90;;;1.75;;
21022;SDS011;10669;51.076;3.714;2022-07-17T08:16:25;5.28;;;1.92;;
21022;SDS011;10669;51.076;3.714;2022-07-17T08:18:51;4.10;;;1.42;;
21022;SDS011;10669;51.076;3.714;2022-07-17T08:21:16;6.68;;;1.60;;
21022;SDS011;10669;51.076;3.714;2022-07-17T08:23:42;3.00;;;1.33;;
21022;SDS011;10669;51.076;3.714;2022-07-17T08:26:08;3.78;;;1.40;;
21022;SDS011;10669;51.076;3.714;2022-07-17T08:28:34;9.70;;;1.85;;
21022;SDS011;10669;51.076;3.714;2022-07-17T08:31:00;4.85;;;1.42;;
21022;SDS011;10669;51.076;3.714;2022-07-17T08:33:25;6.18;;;1.60;;
21022;SDS011;10669;51.076;3.714;2022-07-17T08:35:51;7.13;;;1.50;;
21022;SDS011;10669;51.076;3.714;2022-07-17T08:38:17;10.48;;;1.80;;
21022;SDS011;10669;51.076;3.714;2022-07-17T08:40:42;4.03;;;1.55;;
21022;SDS011;10669;51.076;3.714;2022-07-17T08:43:14;8.50;;;1.50;;
21022;SDS011;10669;51.076;3.714;2022-07-17T08:45:40;6.22;;;1.80;;
21022;SDS011;10669;51.076;3.714;2022-07-17T08:48:07;6.93;;;1.90;;
21022;SDS011;10669;51.076;3.714;2022-07-17T08:50:39;4.68;;;1.15;;
21022;SDS011;10669;51.076;3.714;2022-07-17T08:53:05;4.68;;;1.50;;
21022;SDS011;10669;51.076;3.714;2022-07-17T08:55:31;4.70;;;2.38;;
21022;SDS011;10669;51.076;3.714;2022-07-17T08:57:57;4.57;;;1.38;;
21022;SDS011;10669;51.076;3.714;2022-07-17T09:00:23;6.00;;;2.58;;
21022;SDS011;10669;51.076;3.714;2022-07-17T09:05:35;5.55;;;1.98;;
21022;SDS011;10669;51.076;3.714;2022-07-17T09:08:08;4.78;;;1.60;;
21022;SDS011;10669;51.076;3.714;2022-07-17T09:10:43;5.30;;;1.50;;
21022;SDS011;10669;51.076;3.714;2022-07-17T09:13:17;4.97;;;1.40;;
21022;SDS011;10669;51.076;3.714;2022-07-17T09:15:48;4.05;;;1.17;;
21022;SDS011;10669;51.076;3.714;2022-07-17T09:18:15;4.15;;;1.50;;
21022;SDS011;10669;51.076;3.714;2022-07-17T09:21:15;6.13;;;1.70;;
21022;SDS011;10669;51.076;3.714;2022-07-17T09:23:41;4.80;;;1.65;;
21022;SDS011;10669;51.076;3.714;2022-07-17T09:26:06;2.92;;;1.80;;
21022;SDS011;10669;51.076;3.714;2022-07-17T09:28:32;4.70;;;1.88;;
21022;SDS011;10669;51.076;3.714;2022-07-17T09:31:08;5.28;;;1.75;;
21022;SDS011;10669;51.076;3.714;2022-07-17T09:33:34;8.82;;;2.60;;
21022;SDS011;10669;51.076;3.714;2022-07-17T09:36:09;2.92;;;1.70;;
21022;SDS011;10669;51.076;3.714;2022-07-17T09:38:41;3.42;;;1.70;;
21022;SDS011;10669;51.076;3.714;2022-07-17T09:46:07;3.63;;;2.05;;
21022;SDS011;10669;51.076;3.714;2022-07-17T09:48:33;5.22;;;1.40;;
21022;SDS011;10669;51.076;3.714;2022-07-17T09:51:04;6.32;;;1.35;;
21022;SDS011;10669;51.076;3.714;2022-07-17T09:53:31;7.07;;;1.48;;
21022;SDS011;10669;51.076;3.714;2022-07-17T09:56:01;4.63;;;1.38;;
21022;SDS011;10669;51.076;3.714;2022-07-17T09:58:28;6.78;;;2.10;;
21022;SDS011;10669;51.076;3.714;2022-07-17T10:00:57;6.90;;;1.50;;
21022;SDS011;10669;51.076;3.714;2022-07-17T10:03:24;3.47;;;1.45;;
21022;SDS011;10669;51.076;3.714;2022-07-17T10:05:50;5.60;;;1.73;;
21022;SDS011;10669;51.076;3.714;2022-07-17T10:08:16;7.97;;;1.73;;
21022;SDS011;10669;51.076;3.714;2022-07-17T10:10:42;3.88;;;1.75;;
21022;SDS011;10669;51.076;3.714;2022-07-17T10:13:09;4.70;;;1.80;;
21022;SDS011;10669;51.076;3.714;2022-07-17T10:15:35;5.38;;;1.60;;
21022;SDS011;10669;51.076;3.714;2022-07-17T10:18:04;6.85;;;1.95;;
21022;SDS011;10669;51.076;3.714;2022-07-17T10:20:30;3.83;;;1.55;;
21022;SDS011;10669;51.076;3.714;2022-07-17T10:22:56;2.40;;;1.90;;
21022;SDS011;10669;51.076;3.714;2022-07-17T10:25:21;8.68;;;2.20;;
21022;SDS011;10669;51.076;3.714;2022-07-17T10:27:54;4.15;;;1.73;;
21022;SDS011;10669;51.076;3.714;2022-07-17T10:30:25;4.97;;;1.83;;
21022;SDS011;10669;51.076;3.714;2022-07-17T10:32:56;4.90;;;1.98;;
21022;SDS011;10669;51.076;3.714;2022-07-17T10:35:24;5.03;;;1.98;;
21022;SDS011;10669;51.076;3.714;2022-07-17T10:37:51;9.98;;;2.20;;
21022;SDS011;10669;51.076;3.714;2022-07-17T10:40:20;3.58;;;1.88;;
21022;SDS011;10669;51.076;3.714;2022-07-17T10:45:19;3.38;;;1.80;;
21022;SDS011;10669;51.076;3.714;2022-07-17T10:47:55;3.05;;;1.67;;
21022;SDS011;10669;51.076;3.714;2022-07-17T10:50:26;6.13;;;1.50;;
21022;SDS011;10669;51.076;3.714;2022-07-17T10:53:02;5.65;;;2.30;;
21022;SDS011;10669;51.076;3.714;2022-07-17T10:55:55;7.20;;;2.38;;
21022;SDS011;10669;51.076;3.714;2022-07-17T10:58:43;7.47;;;2.10;;
21022;SDS011;10669;51.076;3.714;2022-07-17T11:01:10;5.07;;;2.50;;
21022;SDS011;10669;51.076;3.714;2022-07-17T11:06:16;4.35;;;1.90;;
21022;SDS011;10669;51.076;3.714;2022-07-17T11:08:49;11.90;;;2.15;;
21022;SDS011;10669;51.076;3.714;2022-07-17T11:11:18;5.93;;;2.08;;
21022;SDS011;10669;51.076;3.714;2022-07-17T11:13:46;6.75;;;2.08;;
21022;SDS011;10669;51.076;3.714;2022-07-17T11:16:23;5.97;;;2.50;;
21022;SDS011;10669;51.076;3.714;2022-07-17T11:18:52;4.28;;;2.30;;
21022;SDS011;10669;51.076;3.714;2022-07-17T11:21:19;6.78;;;2.40;;
21022;SDS011;10669;51.076;3.714;2022-07-17T11:23:52;5.07;;;2.38;;
21022;SDS011;10669;51.076;3.714;2022-07-17T11:26:19;3.85;;;2.60;;
21022;SDS011;10669;51.076;3.714;2022-07-17T11:28:48;5.90;;;2.22;;
21022;SDS011;10669;51.076;3.714;2022-07-17T11:31:16;3.88;;;2.05;;
21022;SDS011;10669;51.076;3.714;2022-07-17T11:36:26;6.28;;;2.40;;
21022;SDS011;10669;51.076;3.714;2022-07-17T11:39:09;7.15;;;2.40;;
21022;SDS011;10669;51.076;3.714;2022-07-17T11:41:43;5.22;;;2.50;;
21022;SDS011;10669;51.076;3.714;2022-07-17T11:44:16;5.95;;;2.30;;
21022;SDS011;10669;51.076;3.714;2022-07-17T11:46:43;7.13;;;2.72;;
21022;SDS011;10669;51.076;3.714;2022-07-17T11:49:10;7.93;;;2.30;;
21022;SDS011;10669;51.076;3.714;2022-07-17T11:51:47;7.57;;;2.30;;
21022;SDS011;10669;51.076;3.714;2022-07-17T11:54:14;9.43;;;3.33;;
21022;SDS011;10669;51.076;3.714;2022-07-17T11:56:41;6.00;;;2.70;;
21022;SDS011;10669;51.076;3.714;2022-07-17T11:59:08;5.15;;;2.90;;
21022;SDS011;10669;51.076;3.714;2022-07-17T12:01:38;5.03;;;3.30;;
21022;SDS011;10669;51.076;3.714;2022-07-17T12:04:07;9.43;;;3.22;;
21022;SDS011;10669;51.076;3.714;2022-07-17T12:06:34;7.35;;;2.75;;
21022;SDS011;10669;51.076;3.714;2022-07-17T12:09:00;5.65;;;3.10;;
21022;SDS011;10669;51.076;3.714;2022-07-17T12:11:26;4.45;;;2.75;;
21022;SDS011;10669;51.076;3.714;2022-07-17T12:13:51;7.30;;;3.00;;
21022;SDS011;10669;51.076;3.714;2022-07-17T12:16:17;6.50;;;2.95;;
21022;SDS011;10669;51.076;3.714;2022-07-17T12:18:54;7.38;;;3.00;;
21022;SDS011;10669;51.076;3.714;2022-07-17T12:21:21;7.75;;;2.95;;
21022;SDS011;10669;51.076;3.714;2022-07-17T12:23:55;5.93;;;2.78;;
21022;SDS011;10669;51.076;3.714;2022-07-17T12:26:23;5.28;;;3.10;;
21022;SDS011;10669;51.076;3.714;2022-07-17T12:28:49;4.57;;;3.22;;
21022;SDS011;10669;51.076;3.714;2022-07-17T12:31:14;4.85;;;3.05;;
21022;SDS011;10669;51.076;3.714;2022-07-17T12:33:40;4.65;;;3.45;;
21022;SDS011;10669;51.076;3.714;2022-07-17T12:36:06;8.35;;;4.25;;
21022;SDS011;10669;51.076;3.714;2022-07-17T12:38:32;5.80;;;3.45;;
21022;SDS011;10669;51.076;3.714;2022-07-17T12:40:58;9.98;;;3.88;;
21022;SDS011;10669;51.076;3.714;2022-07-17T12:43:24;7.53;;;3.80;;
21022;SDS011;10669;51.076;3.714;2022-07-17T12:45:49;7.88;;;4.05;;
21022;SDS011;10669;51.076;3.714;2022-07-17T12:48:15;5.20;;;3.33;;
21022;SDS011;10669;51.076;3.714;2022-07-17T12:50:41;5.95;;;3.85;;
21022;SDS011;10669;51.076;3.714;2022-07-17T12:53:06;7.38;;;4.28;;
21022;SDS011;10669;51.076;3.714;2022-07-17T12:55:33;5.10;;;3.78;;
21022;SDS011;10669;51.076;3.714;2022-07-17T12:57:59;8.15;;;3.75;;
21022;SDS011;10669;51.076;3.714;2022-07-17T13:00:24;7.45;;;4.03;;
21022;SDS011;10669;51.076;3.714;2022-07-17T13:02:50;8.80;;;4.35;;
21022;SDS011;10669;51.076;3.714;2022-07-17T13:05:15;7.82;;;3.90;;
21022;SDS011;10669;51.076;3.714;2022-07-17T13:07:41;8.30;;;3.80;;
21022;SDS011;10669;51.076;3.714;2022-07-17T13:10:07;8.70;;;3.78;;
21022;SDS011;10669;51.076;3.714;2022-07-17T13:12:32;5.22;;;3.30;;
21022;SDS011;10669;51.076;3.714;2022-07-17T13:14:59;8.13;;;4.15;;
21022;SDS011;10669;51.076;3.714;2022-07-17T13:17:27;7.40;;;3.28;;
21022;SDS011;10669;51.076;3.714;2022-07-17T13:19:53;8.23;;;4.20;;
21022;SDS011;10669;51.076;3.714;2022-07-17T13:22:18;5.63;;;3.58;;
21022;SDS011;10669;51.076;3.714;2022-07-17T13:24:44;10.18;;;3.80;;
21022;SDS011;10669;51.076;3.714;2022-07-17T13:27:10;7.35;;;2.78;;
21022;SDS011;10669;51.076;3.714;2022-07-17T13:29:35;4.70;;;3.33;;
21022;SDS011;10669;51.076;3.714;2022-07-17T13:32:01;5.72;;;3.38;;
21022;SDS011;10669;51.076;3.714;2022-07-17T13:34:28;4.65;;;3.00;;
21022;SDS011;10669;51.076;3.714;2022-07-17T13:36:53;6.47;;;3.78;;
21022;SDS011;10669;51.076;3.714;2022-07-17T13:39:19;8.55;;;3.30;;
21022;SDS011;10669;51.076;3.714;2022-07-17T13:41:44;6.15;;;3.63;;
21022;SDS011;10669;51.076;3.714;2022-07-17T13:44:10;6.85;;;3.40;;
21022;SDS011;10669;51.076;3.714;2022-07-17T13:46:36;7.03;;;3.92;;
21022;SDS011;10669;51.076;3.714;2022-07-17T13:49:01;5.45;;;3.80;;
21022;SDS011;10669;51.076;3.714;2022-07-17T13:51:28;5.75;;;3.47;;
21022;SDS011;10669;51.076;3.714;2022-07-17T13:53:55;6.18;;;4.13;;
21022;SDS011;10669;51.076;3.714;2022-07-17T13:56:24;7.88;;;4.32;;
21022;SDS011;10669;51.076;3.714;2022-07-17T13:58:50;5.50;;;3.60;;
21022;SDS011;10669;51.076;3.714;2022-07-17T14:01:16;6.43;;;4.25;;
21022;SDS011;10669;51.076;3.714;2022-07-17T14:03:41;8.27;;;4.78;;
21022;SDS011;10669;51.076;3.714;2022-07-17T14:06:07;8.43;;;4.35;;
21022;SDS011;10669;51.076;3.714;2022-07-17T14:08:33;8.48;;;4.63;;
21022;SDS011;10669;51.076;3.714;2022-07-17T14:11:00;7.45;;;4.15;;
21022;SDS011;10669;51.076;3.714;2022-07-17T14:13:26;4.60;;;3.63;;
21022;SDS011;10669;51.076;3.714;2022-07-17T14:15:52;6.32;;;3.63;;
21022;SDS011;10669;51.076;3.714;2022-07-17T14:18:18;6.03;;;4.10;;
21022;SDS011;10669;51.076;3.714;2022-07-17T14:20:43;6.78;;;3.92;;
21022;SDS011;10669;51.076;3.714;2022-07-17T14:23:09;4.28;;;3.30;;
21022;SDS011;10669;51.076;3.714;2022-07-17T14:25:36;7.55;;;3.90;;
21022;SDS011;10669;51.076;3.714;2022-07-17T14:28:02;6.85;;;3.90;;
21022;SDS011;10669;51.076;3.714;2022-07-17T14:30:27;7.35;;;4.00;;
21022;SDS011;10669;51.076;3.714;2022-07-17T14:32:53;6.82;;;4.28;;
21022;SDS011;10669;51.076;3.714;2022-07-17T14:35:19;10.25;;;4.20;;
21022;SDS011;10669;51.076;3.714;2022-07-17T14:37:45;4.57;;;3.50;;
21022;SDS011;10669;51.076;3.714;2022-07-17T14:40:11;4.75;;;3.75;;
21022;SDS011;10669;51.076;3.714;2022-07-17T14:42:37;8.82;;;3.70;;
21022;SDS011;10669;51.076;3.714;2022-07-17T14:45:03;11.13;;;4.20;;
21022;SDS011;10669;51.076;3.714;2022-07-17T14:47:29;5.72;;;4.45;;
21022;SDS011;10669;51.076;3.714;2022-07-17T14:49:55;4.10;;;3.70;;
21022;SDS011;10669;51.076;3.714;2022-07-17T14:52:20;5.30;;;3.72;;
21022;SDS011;10669;51.076;3.714;2022-07-17T14:54:46;4.20;;;3.65;;
21022;SDS011;10669;51.076;3.714;2022-07-17T14:57:12;6.13;;;4.05;;
21022;SDS011;10669;51.076;3.714;2022-07-17T14:59:37;6.60;;;4.30;;
21022;SDS011;10669;51.076;3.714;2022-07-17T15:02:03;8.60;;;4.13;;